sensor_id;sensor_type;location;lat;lon;timestamp;pressure;altitude;pressure_sealevel;temperature;humidity
53619;BME280;39505;53.040;18.488;2023-02-20T00:00:00;101482.00;;;2.25;100.00
53619;BME280;39505;53.040;18.488;2023-02-20T00:00:18;101476.69;;;2.25;100.00
53619;BME280;39505;53.040;18.488;2023-02-20T00:00:52;101473.16;;;2.24;100.00
53619;BME280;39505;53.040;18.488;2023-02-20T00:01:10;101483.84;;;2.22;100.00
53619;BME280;39505;53.040;18.488;2023-02-20T00:01:25;101477.59;;;2.23;100.00
53619;BME280;39505;53.040;18.488;2023-02-20T00:01:38;101475.91;;;2.22;100.00
53619;BME280;39505;53.040;18.488;2023-02-20T00:01:53;101475.91;;;2.22;100.00
53619;BME280;39505;53.040;18.488;2023-02-20T00:02:14;101476.81;;;2.21;100.00
53619;BME280;39505;53.040;18.488;2023-02-20T00:02:33;101475.09;;;2.20;100.00
53619;BME280;39505;53.040;18.488;2023-02-20T00:02:47;101480.38;;;2.20;100.00
53619;BME280;39505;53.040;18.488;2023-02-20T00:03:00;101480.38;;;2.20;100.00
53619;BME280;39505;53.040;18.488;2023-02-20T00:03:14;101489.22;;;2.19;100.00
53619;BME280;39505;53.040;18.488;2023-02-20T00:03:27;101477.69;;;2.22;100.00
53619;BME280;39505;53.040;18.488;2023-02-20T00:03:43;101483.88;;;2.21;100.00
53619;BME280;39505;53.040;18.488;2023-02-20T00:03:56;101486.53;;;2.21;100.00
53619;BME280;39505;53.040;18.488;2023-02-20T00:04:09;101482.09;;;2.21;100.00
53619;BME280;39505;53.040;18.488;2023-02-20T00:04:22;101477.75;;;2.20;100.00
53619;BME280;39505;53.040;18.488;2023-02-20T00:04:34;101473.34;;;2.19;100.00
53619;BME280;39505;53.040;18.488;2023-02-20T00:04:47;101485.69;;;2.20;100.00
53619;BME280;39505;53.040;18.488;2023-02-20T00:05:01;101476.81;;;2.21;100.00
53619;BME280;39505;53.040;18.488;2023-02-20T00:05:14;101478.59;;;2.21;100.00
53619;BME280;39505;53.040;18.488;2023-02-20T00:05:27;101480.38;;;2.20;100.00
53619;BME280;39505;53.040;18.488;2023-02-20T00:05:40;101479.53;;;2.20;100.00
53619;BME280;39505;53.040;18.488;2023-02-20T00:05:53;101476.88;;;2.20;100.00
53619;BME280;39505;53.040;18.488;2023-02-20T00:06:06;101472.50;;;2.19;100.00
53619;BME280;39505;53.040;18.488;2023-02-20T00:06:19;101470.72;;;2.19;100.00
53619;BME280;39505;53.040;18.488;2023-02-20T00:06:32;101478.66;;;2.19;100.00
53619;BME280;39505;53.040;18.488;2023-02-20T00:06:45;101475.09;;;2.20;100.00
53619;BME280;39505;53.040;18.488;2023-02-20T00:06:58;101470.66;;;2.21;100.00
53619;BME280;39505;53.040;18.488;2023-02-20T00:07:11;101476.81;;;2.21;100.00
53619;BME280;39505;53.040;18.488;2023-02-20T00:07:23;101479.44;;;2.21;100.00
53619;BME280;39505;53.040;18.488;2023-02-20T00:07:36;101473.25;;;2.22;100.00
53619;BME280;39505;53.040;18.488;2023-02-20T00:07:49;101475.91;;;2.22;100.00
53619;BME280;39505;53.040;18.488;2023-02-20T00:08:03;101465.31;;;2.22;100.00
53619;BME280;39505;53.040;18.488;2023-02-20T00:08:15;101463.56;;;2.21;100.00
53619;BME280;39505;53.040;18.488;2023-02-20T00:08:28;101476.81;;;2.21;100.00
53619;BME280;39505;53.040;18.488;2023-02-20T00:08:42;101462.72;;;2.21;100.00
53619;BME280;39505;53.040;18.488;2023-02-20T00:08:59;101466.22;;;2.21;100.00
53619;BME280;39505;53.040;18.488;2023-02-20T00:09:18;101473.34;;;2.19;100.00
53619;BME280;39505;53.040;18.488;2023-02-20T00:09:33;101473.31;;;2.21;100.00
53619;BME280;39505;53.040;18.488;2023-02-20T00:09:53;101474.97;;;2.23;100.00
53619;BME280;39505;53.040;18.488;2023-02-20T00:10:10;101473.25;;;2.22;100.00
53619;BME280;39505;53.040;18.488;2023-02-20T00:10:26;101466.22;;;2.21;100.00
53619;BME280;39505;53.040;18.488;2023-02-20T00:10:42;101471.50;;;2.21;100.00
53619;BME280;39505;53.040;18.488;2023-02-20T00:11:00;101468.88;;;2.21;100.00
53619;BME280;39505;53.040;18.488;2023-02-20T00:11:17;101460.06;;;2.21;100.00
53619;BME280;39505;53.040;18.488;2023-02-20T00:11:52;101456.56;;;2.20;100.00
53619;BME280;39505;53.040;18.488;2023-02-20T00:12:20;101464.50;;;2.20;100.00
53619;BME280;39505;53.040;18.488;2023-02-20T00:12:32;101472.44;;;2.20;100.00
53619;BME280;39505;53.040;18.488;2023-02-20T00:12:45;101468.06;;;2.19;100.00
53619;BME280;39505;53.040;18.488;2023-02-20T00:12:59;101473.34;;;2.19;100.00
53619;BME280;39505;53.040;18.488;2023-02-20T00:13:11;101470.78;;;2.18;100.00
53619;BME280;39505;53.040;18.488;2023-02-20T00:13:24;101469.91;;;2.17;100.00
53619;BME280;39505;53.040;18.488;2023-02-20T00:13:37;101469.91;;;2.17;100.00
53619;BME280;39505;53.040;18.488;2023-02-20T00:13:50;101472.56;;;2.17;100.00
53619;BME280;39505;53.040;18.488;2023-02-20T00:14:03;101466.41;;;2.17;100.00
53619;BME280;39505;53.040;18.488;2023-02-20T00:14:16;101468.19;;;2.16;100.00
53619;BME280;39505;53.040;18.488;2023-02-20T00:14:30;101477.03;;;2.15;100.00
53619;BME280;39505;53.040;18.488;2023-02-20T00:14:45;101471.75;;;2.15;100.00
53619;BME280;39505;53.040;18.488;2023-02-20T00:14:58;101470.03;;;2.14;100.00
53619;BME280;39505;53.040;18.488;2023-02-20T00:15:14;101471.84;;;2.14;100.00
53619;BME280;39505;53.040;18.488;2023-02-20T00:15:27;101462.09;;;2.14;100.00
53619;BME280;39505;53.040;18.488;2023-02-20T00:15:42;101472.69;;;2.14;100.00
53619;BME280;39505;53.040;18.488;2023-02-20T00:15:56;101458.66;;;2.12;100.00
53619;BME280;39505;53.040;18.488;2023-02-20T00:16:09;101464.75;;;2.14;100.00
53619;BME280;39505;53.040;18.488;2023-02-20T00:16:22;101456.88;;;2.13;100.00
53619;BME280;39505;53.040;18.488;2023-02-20T00:16:35;101463.03;;;2.13;100.00
53619;BME280;39505;53.040;18.488;2023-02-20T00:16:49;101469.25;;;2.12;100.00
53619;BME280;39505;53.040;18.488;2023-02-20T00:17:10;101471.03;;;2.12;100.00
53619;BME280;39505;53.040;18.488;2023-02-20T00:17:27;101471.03;;;2.12;100.00
53619;BME280;39505;53.040;18.488;2023-02-20T00:17:44;101463.09;;;2.12;100.00
53619;BME280;39505;53.040;18.488;2023-02-20T00:18:03;101459.59;;;2.11;100.00
53619;BME280;39505;53.040;18.488;2023-02-20T00:18:21;101464.00;;;2.11;100.00
53619;BME280;39505;53.040;18.488;2023-02-20T00:18:39;101475.47;;;2.11;100.00
53619;BME280;39505;53.040;18.488;2023-02-20T00:19:01;101466.66;;;2.11;100.00
53619;BME280;39505;53.040;18.488;2023-02-20T00:19:18;101467.59;;;2.10;100.00
53619;BME280;39505;53.040;18.488;2023-02-20T00:19:36;101460.50;;;2.10;100.00
53619;BME280;39505;53.040;18.488;2023-02-20T00:19:56;101463.16;;;2.10;100.00
53619;BME280;39505;53.040;18.488;2023-02-20T00:20:13;101460.50;;;2.10;100.00
53619;BME280;39505;53.040;18.488;2023-02-20T00:20:30;101461.44;;;2.09;100.00
53619;BME280;39505;53.040;18.488;2023-02-20T00:20:50;101465.78;;;2.10;100.00
53619;BME280;39505;53.040;18.488;2023-02-20T00:21:04;101461.44;;;2.09;100.00
53619;BME280;39505;53.040;18.488;2023-02-20T00:21:17;101465.00;;;2.08;100.00
53619;BME280;39505;53.040;18.488;2023-02-20T00:21:30;101472.91;;;2.08;100.00
53619;BME280;39505;53.040;18.488;2023-02-20T00:21:44;101468.56;;;2.07;100.00
53619;BME280;39505;53.040;18.488;2023-02-20T00:21:58;101457.84;;;2.10;100.00
53619;BME280;39505;53.040;18.488;2023-02-20T00:22:11;101469.09;;;2.15;100.00
53619;BME280;39505;53.040;18.488;2023-02-20T00:22:24;101466.47;;;2.15;100.00
53619;BME280;39505;53.040;18.488;2023-02-20T00:22:37;101461.16;;;2.15;100.00
53619;BME280;39505;53.040;18.488;2023-02-20T00:22:51;101466.47;;;2.15;100.00
53619;BME280;39505;53.040;18.488;2023-02-20T00:23:04;101464.75;;;2.14;100.00
53619;BME280;39505;53.040;18.488;2023-02-20T00:23:17;101466.53;;;2.14;100.00
53619;BME280;39505;53.040;18.488;2023-02-20T00:23:31;101468.34;;;2.13;100.00
53619;BME280;39505;53.040;18.488;2023-02-20T00:23:44;101469.19;;;2.14;100.00
53619;BME280;39505;53.040;18.488;2023-02-20T00:23:57;101458.66;;;2.12;100.00
53619;BME280;39505;53.040;18.488;2023-02-20T00:24:09;101467.44;;;2.13;100.00
53619;BME280;39505;53.040;18.488;2023-02-20T00:24:22;101463.94;;;2.12;100.00
53619;BME280;39505;53.040;18.488;2023-02-20T00:24:34;101456.88;;;2.13;100.00
53619;BME280;39505;53.040;18.488;2023-02-20T00:24:48;101462.16;;;2.13;100.00
53619;BME280;39505;53.040;18.488;2023-02-20T00:25:02;101459.50;;;2.13;100.00
53619;BME280;39505;53.040;18.488;2023-02-20T00:25:15;101452.47;;;2.13;100.00
53619;BME280;39505;53.040;18.488;2023-02-20T00:25:28;101455.16;;;2.12;100.00
53619;BME280;39505;53.040;18.488;2023-02-20T00:25:41;101459.50;;;2.13;100.00
53619;BME280;39505;53.040;18.488;2023-02-20T00:25:54;101463.91;;;2.14;100.00
53619;BME280;39505;53.040;18.488;2023-02-20T00:26:08;101459.47;;;2.14;100.00
53619;BME280;39505;53.040;18.488;2023-02-20T00:26:23;101467.41;;;2.14;100.00
53619;BME280;39505;53.040;18.488;2023-02-20T00:26:35;101454.22;;;2.13;100.00
53619;BME280;39505;53.040;18.488;2023-02-20T00:26:49;101451.56;;;2.13;100.00
53619;BME280;39505;53.040;18.488;2023-02-20T00:27:03;101450.72;;;2.12;100.00
53619;BME280;39505;53.040;18.488;2023-02-20T00:27:15;101456.00;;;2.12;100.00
53619;BME280;39505;53.040;18.488;2023-02-20T00:27:29;101454.16;;;2.14;100.00
53619;BME280;39505;53.040;18.488;2023-02-20T00:27:43;101448.88;;;2.14;100.00
53619;BME280;39505;53.040;18.488;2023-02-20T00:27:56;101448.88;;;2.14;100.00
53619;BME280;39505;53.040;18.488;2023-02-20T00:28:09;101448.88;;;2.14;100.00
53619;BME280;39505;53.040;18.488;2023-02-20T00:28:21;101449.72;;;2.15;100.00
53619;BME280;39505;53.040;18.488;2023-02-20T00:28:34;101458.59;;;2.14;100.00
53619;BME280;39505;53.040;18.488;2023-02-20T00:28:47;101462.06;;;2.16;100.00
53619;BME280;39505;53.040;18.488;2023-02-20T00:29:01;101449.34;;;2.24;100.00
53619;BME280;39505;53.040;18.488;2023-02-20T00:29:15;101447.66;;;2.23;100.00
53619;BME280;39505;53.040;18.488;2023-02-20T00:29:28;101448.50;;;2.23;100.00
53619;BME280;39505;53.040;18.488;2023-02-20T00:29:43;101445.84;;;2.23;100.00
53619;BME280;39505;53.040;18.488;2023-02-20T00:29:56;101448.50;;;2.23;100.00
53619;BME280;39505;53.040;18.488;2023-02-20T00:30:14;101446.78;;;2.22;100.00
53619;BME280;39505;53.040;18.488;2023-02-20T00:30:29;101445.94;;;2.22;100.00
53619;BME280;39505;53.040;18.488;2023-02-20T00:30:41;101440.66;;;2.22;100.00
53619;BME280;39505;53.040;18.488;2023-02-20T00:30:55;101446.84;;;2.21;100.00
53619;BME280;39505;53.040;18.488;2023-02-20T00:31:12;101445.13;;;2.20;100.00
53619;BME280;39505;53.040;18.488;2023-02-20T00:31:26;101449.53;;;2.19;100.00
53619;BME280;39505;53.040;18.488;2023-02-20T00:31:39;101454.84;;;2.19;100.00
53619;BME280;39505;53.040;18.488;2023-02-20T00:31:53;101450.47;;;2.18;100.00
53619;BME280;39505;53.040;18.488;2023-02-20T00:32:06;101444.34;;;2.18;100.00
53619;BME280;39505;53.040;18.488;2023-02-20T00:32:18;101451.38;;;2.17;100.00
53619;BME280;39505;53.040;18.488;2023-02-20T00:32:31;101455.78;;;2.18;100.00
53619;BME280;39505;53.040;18.488;2023-02-20T00:32:44;101454.84;;;2.19;100.00
53619;BME280;39505;53.040;18.488;2023-02-20T00:32:57;101451.22;;;2.22;100.00
53619;BME280;39505;53.040;18.488;2023-02-20T00:33:11;101445.06;;;2.21;100.00
53619;BME280;39505;53.040;18.488;2023-02-20T00:33:24;101450.34;;;2.21;100.00
53619;BME280;39505;53.040;18.488;2023-02-20T00:33:36;101445.06;;;2.21;100.00
53619;BME280;39505;53.040;18.488;2023-02-20T00:33:49;101443.34;;;2.20;100.00
53619;BME280;39505;53.040;18.488;2023-02-20T00:34:01;101453.00;;;2.21;100.00
53619;BME280;39505;53.040;18.488;2023-02-20T00:34:14;101452.13;;;2.21;100.00
53619;BME280;39505;53.040;18.488;2023-02-20T00:34:27;101453.94;;;2.20;100.00
53619;BME280;39505;53.040;18.488;2023-02-20T00:34:41;101439.03;;;2.18;100.00
53619;BME280;39505;53.040;18.488;2023-02-20T00:34:54;101444.25;;;2.19;100.00
53619;BME280;39505;53.040;18.488;2023-02-20T00:35:08;101446.03;;;2.19;100.00
53619;BME280;39505;53.040;18.488;2023-02-20T00:35:21;101448.69;;;2.19;100.00
53619;BME280;39505;53.040;18.488;2023-02-20T00:35:34;101448.63;;;2.20;100.00
53619;BME280;39505;53.040;18.488;2023-02-20T00:35:46;101444.34;;;2.18;100.00
53619;BME280;39505;53.040;18.488;2023-02-20T00:35:59;101447.78;;;2.20;100.00
53619;BME280;39505;53.040;18.488;2023-02-20T00:36:14;101446.91;;;2.19;100.00
53619;BME280;39505;53.040;18.488;2023-02-20T00:36:27;101447.78;;;2.20;100.00
53619;BME280;39505;53.040;18.488;2023-02-20T00:36:39;101443.44;;;2.17;100.00
53619;BME280;39505;53.040;18.488;2023-02-20T00:36:52;101439.91;;;2.18;100.00
53619;BME280;39505;53.040;18.488;2023-02-20T00:37:05;101438.16;;;2.17;100.00
53619;BME280;39505;53.040;18.488;2023-02-20T00:37:18;101437.31;;;2.17;100.00
53619;BME280;39505;53.040;18.488;2023-02-20T00:37:31;101441.75;;;2.16;100.00
53619;BME280;39505;53.040;18.488;2023-02-20T00:37:44;101453.97;;;2.19;100.00
53619;BME280;39505;53.040;18.488;2023-02-20T00:37:58;101443.34;;;2.20;100.00
53619;BME280;39505;53.040;18.488;2023-02-20T00:38:11;101444.19;;;2.21;100.00
53619;BME280;39505;53.040;18.488;2023-02-20T00:38:23;101444.19;;;2.21;100.00
53619;BME280;39505;53.040;18.488;2023-02-20T00:38:36;101448.63;;;2.20;100.00
53619;BME280;39505;53.040;18.488;2023-02-20T00:38:49;101442.41;;;2.21;100.00
53619;BME280;39505;53.040;18.488;2023-02-20T00:39:02;101444.19;;;2.21;100.00
53619;BME280;39505;53.040;18.488;2023-02-20T00:39:15;101443.28;;;2.22;100.00
53619;BME280;39505;53.040;18.488;2023-02-20T00:39:28;101442.34;;;2.23;100.00
53619;BME280;39505;53.040;18.488;2023-02-20T00:39:41;101437.91;;;2.23;100.00
53619;BME280;39505;53.040;18.488;2023-02-20T00:39:53;101436.13;;;2.24;100.00
53619;BME280;39505;53.040;18.488;2023-02-20T00:40:07;101435.28;;;2.23;100.00
53619;BME280;39505;53.040;18.488;2023-02-20T00:40:22;101436.22;;;2.22;100.00
53619;BME280;39505;53.040;18.488;2023-02-20T00:40:35;101435.28;;;2.23;100.00
53619;BME280;39505;53.040;18.488;2023-02-20T00:40:49;101435.34;;;2.22;100.00
53619;BME280;39505;53.040;18.488;2023-02-20T00:41:01;101431.78;;;2.23;100.00
53619;BME280;39505;53.040;18.488;2023-02-20T00:41:14;101436.22;;;2.22;100.00
53619;BME280;39505;53.040;18.488;2023-02-20T00:41:28;101438.84;;;2.22;100.00
53619;BME280;39505;53.040;18.488;2023-02-20T00:41:41;101435.34;;;2.22;100.00
53619;BME280;39505;53.040;18.488;2023-02-20T00:41:53;101429.19;;;2.21;100.00
53619;BME280;39505;53.040;18.488;2023-02-20T00:42:07;101430.06;;;2.22;100.00
53619;BME280;39505;53.040;18.488;2023-02-20T00:42:20;101433.63;;;2.21;100.00
53619;BME280;39505;53.040;18.488;2023-02-20T00:42:34;101438.06;;;2.20;100.00
53619;BME280;39505;53.040;18.488;2023-02-20T00:42:47;101443.34;;;2.20;100.00
53619;BME280;39505;53.040;18.488;2023-02-20T00:43:00;101431.91;;;2.20;100.00
53619;BME280;39505;53.040;18.488;2023-02-20T00:43:12;101432.75;;;2.20;100.00
53619;BME280;39505;53.040;18.488;2023-02-20T00:43:25;101432.75;;;2.20;100.00
53619;BME280;39505;53.040;18.488;2023-02-20T00:43:40;101423.19;;;2.18;100.00
53619;BME280;39505;53.040;18.488;2023-02-20T00:43:52;101440.69;;;2.20;100.00
53619;BME280;39505;53.040;18.488;2023-02-20T00:44:05;101431.59;;;2.28;100.00
53619;BME280;39505;53.040;18.488;2023-02-20T00:44:18;101432.44;;;2.28;100.00
53619;BME280;39505;53.040;18.488;2023-02-20T00:44:31;101427.22;;;2.27;100.00
53619;BME280;39505;53.040;18.488;2023-02-20T00:44:43;101435.09;;;2.28;100.00
53619;BME280;39505;53.040;18.488;2023-02-20T00:44:56;101434.22;;;2.28;100.00
53619;BME280;39505;53.040;18.488;2023-02-20T00:45:09;101438.66;;;2.27;100.00
53619;BME280;39505;53.040;18.488;2023-02-20T00:45:22;101428.09;;;2.27;100.00
53619;BME280;39505;53.040;18.488;2023-02-20T00:45:35;101429.88;;;2.27;100.00
53619;BME280;39505;53.040;18.488;2023-02-20T00:45:47;101424.59;;;2.27;100.00
53619;BME280;39505;53.040;18.488;2023-02-20T00:46:00;101430.78;;;2.26;100.00
53619;BME280;39505;53.040;18.488;2023-02-20T00:46:13;101426.34;;;2.26;100.00
53619;BME280;39505;53.040;18.488;2023-02-20T00:46:27;101433.38;;;2.27;100.00
53619;BME280;39505;53.040;18.488;2023-02-20T00:46:40;101433.38;;;2.27;100.00
53619;BME280;39505;53.040;18.488;2023-02-20T00:46:53;101422.00;;;2.25;100.00
53619;BME280;39505;53.040;18.488;2023-02-20T00:47:06;101426.34;;;2.26;100.00
53619;BME280;39505;53.040;18.488;2023-02-20T00:47:18;101422.84;;;2.26;100.00
53619;BME280;39505;53.040;18.488;2023-02-20T00:47:31;101429.00;;;2.26;100.00
53619;BME280;39505;53.040;18.488;2023-02-20T00:47:44;101426.34;;;2.26;100.00
53619;BME280;39505;53.040;18.488;2023-02-20T00:47:57;101426.34;;;2.26;100.00
53619;BME280;39505;53.040;18.488;2023-02-20T00:48:11;101426.34;;;2.26;100.00
53619;BME280;39505;53.040;18.488;2023-02-20T00:48:23;101424.50;;;2.28;100.00
53619;BME280;39505;53.040;18.488;2023-02-20T00:48:36;101424.44;;;2.30;100.00
53619;BME280;39505;53.040;18.488;2023-02-20T00:48:48;101428.03;;;2.29;100.00
53619;BME280;39505;53.040;18.488;2023-02-20T00:49:02;101430.69;;;2.29;100.00
53619;BME280;39505;53.040;18.488;2023-02-20T00:49:15;101433.31;;;2.29;100.00
53619;BME280;39505;53.040;18.488;2023-02-20T00:49:27;101429.78;;;2.28;100.00
53619;BME280;39505;53.040;18.488;2023-02-20T00:49:41;101436.81;;;2.29;100.00
53619;BME280;39505;53.040;18.488;2023-02-20T00:49:53;101428.94;;;2.28;100.00
53619;BME280;39505;53.040;18.488;2023-02-20T00:50:07;101428.94;;;2.28;100.00
53619;BME280;39505;53.040;18.488;2023-02-20T00:50:20;101429.88;;;2.27;100.00
53619;BME280;39505;53.040;18.488;2023-02-20T00:50:33;101435.09;;;2.28;100.00
53619;BME280;39505;53.040;18.488;2023-02-20T00:50:45;101428.94;;;2.28;100.00
53619;BME280;39505;53.040;18.488;2023-02-20T00:50:58;101429.78;;;2.28;100.00
53619;BME280;39505;53.040;18.488;2023-02-20T00:51:12;101422.78;;;2.27;100.00
53619;BME280;39505;53.040;18.488;2023-02-20T00:51:24;101434.22;;;2.28;100.00
53619;BME280;39505;53.040;18.488;2023-02-20T00:51:37;101428.13;;;2.26;100.00
53619;BME280;39505;53.040;18.488;2023-02-20T00:51:50;101434.22;;;2.28;100.00
53619;BME280;39505;53.040;18.488;2023-02-20T00:52:02;101435.16;;;2.27;100.00
53619;BME280;39505;53.040;18.488;2023-02-20T00:52:16;101429.88;;;2.27;100.00
53619;BME280;39505;53.040;18.488;2023-02-20T00:52:29;101430.78;;;2.26;100.00
53619;BME280;39505;53.040;18.488;2023-02-20T00:52:41;101429.00;;;2.26;100.00
53619;BME280;39505;53.040;18.488;2023-02-20T00:52:54;101428.94;;;2.28;100.00
53619;BME280;39505;53.040;18.488;2023-02-20T00:53:07;101432.53;;;2.27;100.00
53619;BME280;39505;53.040;18.488;2023-02-20T00:53:20;101428.94;;;2.28;100.00
53619;BME280;39505;53.040;18.488;2023-02-20T00:53:33;101432.53;;;2.27;100.00
53619;BME280;39505;53.040;18.488;2023-02-20T00:53:45;101428.09;;;2.27;100.00
53619;BME280;39505;53.040;18.488;2023-02-20T00:53:58;101432.53;;;2.27;100.00
53619;BME280;39505;53.040;18.488;2023-02-20T00:54:11;101429.78;;;2.28;100.00
53619;BME280;39505;53.040;18.488;2023-02-20T00:54:23;101432.44;;;2.28;100.00
53619;BME280;39505;53.040;18.488;2023-02-20T00:54:37;101425.28;;;2.30;100.00
53619;BME280;39505;53.040;18.488;2023-02-20T00:54:50;101427.94;;;2.30;100.00
53619;BME280;39505;53.040;18.488;2023-02-20T00:55:03;101428.84;;;2.31;100.00
53619;BME280;39505;53.040;18.488;2023-02-20T00:55:15;101432.31;;;2.31;100.00
53619;BME280;39505;53.040;18.488;2023-02-20T00:55:28;101431.47;;;2.31;100.00
53619;BME280;39505;53.040;18.488;2023-02-20T00:55:41;101433.19;;;2.32;100.00
53619;BME280;39505;53.040;18.488;2023-02-20T00:55:53;101426.94;;;2.33;100.00
53619;BME280;39505;53.040;18.488;2023-02-20T00:56:07;101426.09;;;2.32;100.00
53619;BME280;39505;53.040;18.488;2023-02-20T00:56:20;101419.00;;;2.33;100.00
53619;BME280;39505;53.040;18.488;2023-02-20T00:56:33;101425.25;;;2.32;100.00
53619;BME280;39505;53.040;18.488;2023-02-20T00:56:45;101424.38;;;2.31;100.00
53619;BME280;39505;53.040;18.488;2023-02-20T00:56:58;101427.03;;;2.31;100.00
53619;BME280;39505;53.040;18.488;2023-02-20T00:57:10;101424.31;;;2.33;100.00
53619;BME280;39505;53.040;18.488;2023-02-20T00:57:23;101424.38;;;2.31;100.00
53619;BME280;39505;53.040;18.488;2023-02-20T00:57:37;101426.94;;;2.33;100.00
53619;BME280;39505;53.040;18.488;2023-02-20T00:57:51;101425.25;;;2.32;100.00
53619;BME280;39505;53.040;18.488;2023-02-20T00:58:04;101421.66;;;2.33;100.00
53619;BME280;39505;53.040;18.488;2023-02-20T00:58:16;101420.81;;;2.32;100.00
53619;BME280;39505;53.040;18.488;2023-02-20T00:58:29;101425.25;;;2.32;100.00
53619;BME280;39505;53.040;18.488;2023-02-20T00:58:41;101416.44;;;2.31;100.00
53619;BME280;39505;53.040;18.488;2023-02-20T00:58:54;101422.59;;;2.32;100.00
53619;BME280;39505;53.040;18.488;2023-02-20T00:59:07;101419.94;;;2.32;100.00
53619;BME280;39505;53.040;18.488;2023-02-20T00:59:21;101423.53;;;2.31;100.00
53619;BME280;39505;53.040;18.488;2023-02-20T00:59:33;101419.09;;;2.31;100.00
53619;BME280;39505;53.040;18.488;2023-02-20T00:59:46;101414.66;;;2.32;100.00
53619;BME280;39505;53.040;18.488;2023-02-20T00:59:59;101414.72;;;2.30;100.00
53619;BME280;39505;53.040;18.488;2023-02-20T01:00:17;101412.06;;;2.30;100.00
53619;BME280;39505;53.040;18.488;2023-02-20T01:00:30;101416.50;;;2.30;100.00
53619;BME280;39505;53.040;18.488;2023-02-20T01:00:43;101413.81;;;2.31;100.00
53619;BME280;39505;53.040;18.488;2023-02-20T01:00:57;101410.22;;;2.32;100.00
53619;BME280;39505;53.040;18.488;2023-02-20T01:01:09;101411.97;;;2.33;100.00
53619;BME280;39505;53.040;18.488;2023-02-20T01:01:22;101416.25;;;2.36;100.00
53619;BME280;39505;53.040;18.488;2023-02-20T01:01:36;101416.25;;;2.36;100.00
53619;BME280;39505;53.040;18.488;2023-02-20T01:01:48;101409.22;;;2.35;100.00
53619;BME280;39505;53.040;18.488;2023-02-20T01:02:01;101416.25;;;2.36;100.00
53619;BME280;39505;53.040;18.488;2023-02-20T01:02:14;101409.16;;;2.36;100.00
53619;BME280;39505;53.040;18.488;2023-02-20T01:02:28;101413.63;;;2.36;100.00
53619;BME280;39505;53.040;18.488;2023-02-20T01:02:40;101410.97;;;2.36;100.00
53619;BME280;39505;53.040;18.488;2023-02-20T01:02:53;101410.13;;;2.35;100.00
53619;BME280;39505;53.040;18.488;2023-02-20T01:03:06;101416.25;;;2.36;100.00
53619;BME280;39505;53.040;18.488;2023-02-20T01:03:19;101417.16;;;2.35;100.00
53619;BME280;39505;53.040;18.488;2023-02-20T01:03:32;101414.53;;;2.35;100.00
53619;BME280;39505;53.040;18.488;2023-02-20T01:03:44;101412.81;;;2.34;100.00
53619;BME280;39505;53.040;18.488;2023-02-20T01:03:58;101417.25;;;2.33;100.00
53619;BME280;39505;53.040;18.488;2023-02-20T01:04:11;101419.81;;;2.35;100.00
53619;BME280;39505;53.040;18.488;2023-02-20T01:04:23;101416.31;;;2.34;100.00
53619;BME280;39505;53.040;18.488;2023-02-20T01:04:36;101419.81;;;2.35;100.00
53619;BME280;39505;53.040;18.488;2023-02-20T01:04:49;101414.53;;;2.35;100.00
53619;BME280;39505;53.040;18.488;2023-02-20T01:05:01;101418.09;;;2.34;100.00
53619;BME280;39505;53.040;18.488;2023-02-20T01:05:14;101420.75;;;2.34;100.00
53619;BME280;39505;53.040;18.488;2023-02-20T01:05:28;101416.38;;;2.33;100.00
53619;BME280;39505;53.040;18.488;2023-02-20T01:05:41;101417.25;;;2.33;100.00
53619;BME280;39505;53.040;18.488;2023-02-20T01:05:54;101417.31;;;2.32;100.00
53619;BME280;39505;53.040;18.488;2023-02-20T01:06:06;101418.16;;;2.32;100.00
53619;BME280;39505;53.040;18.488;2023-02-20T01:06:19;101414.66;;;2.32;100.00
53619;BME280;39505;53.040;18.488;2023-02-20T01:06:32;101424.38;;;2.31;100.00
53619;BME280;39505;53.040;18.488;2023-02-20T01:06:44;101415.59;;;2.31;100.00
53619;BME280;39505;53.040;18.488;2023-02-20T01:06:57;101413.81;;;2.31;100.00
53619;BME280;39505;53.040;18.488;2023-02-20T01:07:11;101412.06;;;2.30;100.00
53619;BME280;39505;53.040;18.488;2023-02-20T01:07:24;101415.66;;;2.29;100.00
53619;BME280;39505;53.040;18.488;2023-02-20T01:07:37;101415.59;;;2.31;100.00
53619;BME280;39505;53.040;18.488;2023-02-20T01:07:50;101411.22;;;2.30;100.00
53619;BME280;39505;53.040;18.488;2023-02-20T01:08:02;101411.22;;;2.30;100.00
53619;BME280;39505;53.040;18.488;2023-02-20T01:08:15;101416.50;;;2.30;100.00
53619;BME280;39505;53.040;18.488;2023-02-20T01:08:28;101412.94;;;2.31;100.00
53619;BME280;39505;53.040;18.488;2023-02-20T01:08:40;101414.72;;;2.30;100.00
53619;BME280;39505;53.040;18.488;2023-02-20T01:08:54;101415.66;;;2.29;100.00
53619;BME280;39505;53.040;18.488;2023-02-20T01:09:07;101416.56;;;2.28;100.00
53619;BME280;39505;53.040;18.488;2023-02-20T01:09:20;101417.44;;;2.29;100.00
53619;BME280;39505;53.040;18.488;2023-02-20T01:09:32;101420.09;;;2.29;100.00
53619;BME280;39505;53.040;18.488;2023-02-20T01:09:45;101423.53;;;2.31;100.00
53619;BME280;39505;53.040;18.488;2023-02-20T01:09:57;101422.66;;;2.30;100.00
53619;BME280;39505;53.040;18.488;2023-02-20T01:10:10;101421.75;;;2.31;100.00
53619;BME280;39505;53.040;18.488;2023-02-20T01:10:23;101422.59;;;2.32;100.00
53619;BME280;39505;53.040;18.488;2023-02-20T01:10:37;101419.09;;;2.31;100.00
53619;BME280;39505;53.040;18.488;2023-02-20T01:10:50;101414.72;;;2.30;100.00